createdAt,value
2022-11-09T00:01:43.317Z,4.90
2022-11-09T00:04:10.993Z,6.78
2022-11-09T00:06:38.515Z,7.90
2022-11-09T00:09:08.024Z,8.30
2022-11-09T00:11:38.655Z,10.45
2022-11-09T00:14:05.628Z,9.93
2022-11-09T00:16:32.573Z,10.18
2022-11-09T00:18:59.610Z,11.70
2022-11-09T00:21:26.404Z,9.90
2022-11-09T00:23:53.628Z,7.53
2022-11-09T00:26:21.195Z,7.20
2022-11-09T00:28:48.808Z,8.77
2022-11-09T00:31:19.039Z,7.65
2022-11-09T00:33:50.653Z,11.15
2022-11-09T00:36:18.722Z,10.85
2022-11-09T00:38:50.461Z,7.22
2022-11-09T00:41:17.531Z,7.95
2022-11-09T00:43:44.706Z,7.47
2022-11-09T00:46:11.847Z,6.95
2022-11-09T00:48:38.732Z,8.40
2022-11-09T00:51:06.016Z,8.73
2022-11-09T00:53:33.319Z,6.55
2022-11-09T00:56:02.356Z,6.65
2022-11-09T00:58:31.968Z,5.95
2022-11-09T01:01:00.332Z,4.72
2022-11-09T01:03:27.232Z,6.85
2022-11-09T01:05:54.236Z,10.38
2022-11-09T01:08:20.992Z,6.50
2022-11-09T01:10:48.812Z,6.38
2022-11-09T01:13:18.242Z,6.47
2022-11-09T01:15:49.189Z,5.72
2022-11-09T01:18:18.104Z,6.20
2022-11-09T01:20:46.844Z,6.55
2022-11-09T01:23:15.821Z,7.88
2022-11-09T01:25:43.160Z,4.80
2022-11-09T01:28:10.981Z,6.60
2022-11-09T01:30:43.183Z,5.75
2022-11-09T01:33:11.951Z,8.32
2022-11-09T01:35:40.243Z,7.53
2022-11-09T01:38:08.452Z,7.80
2022-11-09T01:40:37.814Z,7.72
2022-11-09T01:43:24.898Z,7.68
2022-11-09T01:45:51.585Z,7.55
2022-11-09T01:48:36.001Z,9.05
2022-11-09T01:51:27.848Z,5.90
2022-11-09T01:54:06.525Z,8.38
2022-11-09T01:56:33.564Z,7.68
2022-11-09T01:59:08.564Z,6.50
2022-11-09T02:01:36.512Z,6.38
2022-11-09T02:04:18.982Z,6.85
2022-11-09T02:06:46.845Z,5.80
2022-11-09T02:09:27.459Z,5.40
2022-11-09T02:11:54.371Z,4.50
2022-11-09T02:14:23.952Z,4.20
2022-11-09T02:16:50.775Z,6.20
2022-11-09T02:19:17.497Z,5.57
2022-11-09T02:21:44.354Z,4.70
2022-11-09T02:24:11.247Z,6.35
2022-11-09T02:26:50.209Z,5.40
2022-11-09T02:29:20.772Z,5.10
2022-11-09T02:31:52.454Z,4.15
2022-11-09T02:34:20.787Z,4.03
2022-11-09T02:36:48.334Z,4.68
2022-11-09T02:39:17.837Z,4.97
2022-11-09T02:41:59.817Z,5.70
2022-11-09T02:44:30.118Z,5.10
2022-11-09T02:46:56.872Z,4.93
2022-11-09T02:49:23.683Z,5.72
2022-11-09T02:51:50.481Z,5.53
2022-11-09T02:54:17.231Z,6.13
2022-11-09T02:56:44.081Z,6.78
2022-11-09T02:59:11.017Z,4.95
2022-11-09T03:01:37.854Z,4.65
2022-11-09T03:04:04.757Z,5.43
2022-11-09T03:06:34.853Z,3.85
2022-11-09T03:09:06.977Z,2.92
2022-11-09T03:11:34.125Z,3.33
2022-11-09T03:14:01.044Z,5.55
2022-11-09T03:16:28.684Z,5.40
2022-11-09T03:18:55.609Z,3.75
2022-11-09T03:21:22.495Z,4.25
2022-11-09T03:23:50.115Z,4.93
2022-11-09T03:26:17.395Z,3.13
2022-11-09T03:28:44.189Z,3.70
2022-11-09T03:31:11.683Z,4.72
2022-11-09T03:33:38.428Z,3.72
2022-11-09T03:36:05.727Z,3.22
2022-11-09T03:38:32.524Z,5.22
2022-11-09T03:41:00.641Z,4.03
2022-11-09T03:43:27.988Z,6.20
2022-11-09T03:45:55.145Z,4.22
2022-11-09T03:48:22.189Z,4.78
2022-11-09T03:50:49.192Z,7.10
2022-11-09T03:53:16.146Z,4.72
2022-11-09T03:55:43.011Z,3.50
2022-11-09T03:58:11.757Z,4.32
2022-11-09T04:00:38.875Z,4.57
2022-11-09T04:03:05.680Z,5.72
2022-11-09T04:05:32.504Z,3.70
2022-11-09T04:07:59.363Z,2.80
2022-11-09T04:10:26.660Z,5.10
2022-11-09T04:12:53.609Z,3.35
2022-11-09T04:15:21.019Z,2.90
2022-11-09T04:17:58.651Z,3.58
2022-11-09T04:20:26.818Z,3.33
2022-11-09T04:23:05.301Z,6.78
2022-11-09T04:25:34.524Z,4.70
2022-11-09T04:28:02.559Z,3.60
2022-11-09T04:30:30.847Z,4.90
2022-11-09T04:32:58.877Z,3.40
2022-11-09T04:35:27.356Z,4.35
2022-11-09T04:38:05.380Z,5.43
2022-11-09T04:40:33.974Z,4.55
2022-11-09T04:43:02.333Z,3.92
2022-11-09T04:45:29.416Z,3.40
2022-11-09T04:48:03.639Z,3.22
2022-11-09T04:50:31.148Z,3.20
2022-11-09T04:53:11.910Z,3.92
2022-11-09T04:55:39.658Z,2.92
2022-11-09T04:58:06.927Z,3.42
2022-11-09T05:00:34.324Z,3.22
2022-11-09T05:03:02.976Z,3.13
2022-11-09T05:05:30.200Z,4.25
2022-11-09T05:07:57.094Z,4.47
2022-11-09T05:10:23.883Z,5.18
2022-11-09T05:12:50.679Z,7.15
2022-11-09T05:15:17.681Z,6.90
2022-11-09T05:17:44.543Z,7.13
2022-11-09T05:20:11.749Z,6.72
2022-11-09T05:22:59.880Z,7.35
2022-11-09T05:25:26.764Z,6.82
2022-11-09T05:27:53.590Z,7.43
2022-11-09T05:30:20.947Z,7.80
2022-11-09T05:32:47.809Z,8.80
2022-11-09T05:35:14.744Z,8.43
2022-11-09T05:37:42.013Z,8.60
2022-11-09T05:40:09.953Z,8.13
2022-11-09T05:42:40.993Z,8.95
2022-11-09T05:45:41.053Z,7.40
2022-11-09T05:47:59.300Z,7.07
2022-11-09T05:50:26.082Z,6.70
2022-11-09T05:52:54.269Z,8.52
2022-11-09T05:55:21.043Z,7.35
2022-11-09T05:57:47.830Z,6.18
2022-11-09T06:00:15.317Z,5.22
2022-11-09T06:02:42.068Z,5.10
2022-11-09T06:05:09.466Z,5.13
2022-11-09T06:07:36.239Z,5.75
2022-11-09T06:10:03.398Z,6.57
2022-11-09T06:12:31.670Z,6.22
2022-11-09T06:14:58.457Z,6.32
2022-11-09T06:17:25.257Z,6.75
2022-11-09T06:19:52.029Z,7.22
2022-11-09T06:22:18.900Z,5.60
2022-11-09T06:24:45.636Z,6.40
2022-11-09T06:27:12.668Z,6.30
2022-11-09T06:29:39.443Z,4.68
2022-11-09T06:32:06.475Z,7.95
2022-11-09T06:34:33.322Z,7.07
2022-11-09T06:37:00.111Z,7.68
2022-11-09T06:39:26.840Z,6.05
2022-11-09T06:41:53.680Z,5.70
2022-11-09T06:44:20.444Z,10.40
2022-11-09T06:46:47.245Z,6.32
2022-11-09T06:49:14.068Z,5.63
2022-11-09T06:51:40.859Z,6.82
2022-11-09T06:54:07.979Z,6.40
2022-11-09T06:56:34.915Z,6.47
2022-11-09T06:59:01.684Z,6.93
2022-11-09T07:01:29.737Z,6.57
2022-11-09T07:03:56.793Z,6.55
2022-11-09T07:06:23.709Z,8.10
2022-11-09T07:08:50.494Z,6.82
2022-11-09T07:11:17.539Z,7.38
2022-11-09T07:13:44.283Z,7.82
2022-11-09T07:16:12.770Z,7.57
2022-11-09T07:18:39.734Z,7.70
2022-11-09T07:21:10.095Z,7.38
2022-11-09T07:23:40.959Z,7.68
2022-11-09T07:26:07.970Z,8.13
2022-11-09T07:28:35.217Z,8.55
2022-11-09T07:31:02.424Z,8.05
2022-11-09T07:33:30.594Z,8.63
2022-11-09T07:36:02.063Z,7.90
2022-11-09T07:38:29.598Z,9.18
2022-11-09T07:41:00.565Z,10.45
2022-11-09T07:43:28.225Z,9.57
2022-11-09T07:45:55.280Z,8.73
2022-11-09T07:48:22.255Z,8.18
2022-11-09T07:50:49.126Z,10.32
2022-11-09T07:53:16.905Z,8.90
2022-11-09T07:55:44.550Z,8.07
2022-11-09T07:58:14.037Z,11.15
2022-11-09T08:00:42.806Z,8.50
2022-11-09T08:03:09.818Z,8.18
2022-11-09T08:05:37.501Z,8.45
2022-11-09T08:08:07.120Z,6.28
2022-11-09T08:10:35.595Z,6.57
2022-11-09T08:13:06.086Z,9.20
2022-11-09T08:15:34.754Z,6.28
2022-11-09T08:18:04.468Z,5.57
2022-11-09T08:20:31.435Z,8.57
2022-11-09T08:23:02.535Z,6.35
2022-11-09T08:25:31.209Z,9.23
2022-11-09T08:27:59.455Z,7.82
2022-11-09T08:30:26.731Z,6.65
2022-11-09T08:32:53.749Z,8.60
2022-11-09T08:35:23.375Z,6.88
2022-11-09T08:37:52.052Z,7.93
2022-11-09T08:40:24.131Z,7.53
2022-11-09T08:42:51.765Z,7.60
2022-11-09T08:45:19.066Z,6.25
2022-11-09T08:47:46.396Z,5.57
2022-11-09T08:50:14.534Z,8.60
2022-11-09T08:52:41.534Z,8.40
2022-11-09T08:55:08.814Z,11.10
2022-11-09T08:57:35.685Z,9.77
2022-11-09T09:00:02.572Z,6.80
2022-11-09T09:02:29.497Z,6.60
2022-11-09T09:04:56.265Z,6.68
2022-11-09T09:07:23.146Z,8.30
2022-11-09T09:09:49.970Z,7.45
2022-11-09T09:12:16.853Z,7.55
2022-11-09T09:14:43.589Z,11.10
2022-11-09T09:17:10.556Z,5.65
2022-11-09T09:19:37.435Z,8.75
2022-11-09T09:22:04.223Z,6.55
2022-11-09T09:24:31.017Z,6.35
2022-11-09T09:26:57.823Z,8.57
2022-11-09T09:29:24.576Z,8.63
2022-11-09T09:31:51.373Z,5.30
2022-11-09T09:34:18.233Z,5.10
2022-11-09T09:36:48.266Z,6.63
2022-11-09T09:39:15.894Z,7.03
2022-11-09T09:41:50.364Z,4.93
2022-11-09T09:44:49.307Z,7.75
2022-11-09T09:47:23.679Z,6.35
2022-11-09T09:50:03.007Z,5.78
2022-11-09T09:52:54.138Z,7.60
2022-11-09T09:55:50.576Z,5.78
2022-11-09T09:58:27.780Z,5.80
2022-11-09T10:01:12.113Z,6.20
2022-11-09T10:03:38.908Z,6.15
2022-11-09T10:06:08.676Z,7.38
2022-11-09T10:08:51.795Z,5.45
2022-11-09T10:11:39.944Z,5.67
2022-11-09T10:14:21.459Z,6.57
2022-11-09T10:17:02.735Z,5.78
2022-11-09T10:19:41.399Z,4.28
2022-11-09T10:22:12.444Z,5.55
2022-11-09T10:25:27.873Z,5.25
2022-11-09T10:28:03.164Z,5.93
2022-11-09T10:30:30.985Z,5.78
2022-11-09T10:33:26.163Z,6.68
2022-11-09T10:36:08.694Z,5.75
2022-11-09T10:38:47.103Z,5.15
2022-11-09T10:41:19.630Z,5.40
2022-11-09T10:43:46.365Z,4.45
2022-11-09T10:46:13.447Z,5.13
2022-11-09T10:48:40.927Z,3.55
2022-11-09T10:51:47.882Z,4.30
2022-11-09T10:54:21.763Z,3.55
2022-11-09T10:57:16.359Z,4.10
2022-11-09T10:59:50.960Z,2.72
2022-11-09T11:02:37.951Z,3.22
2022-11-09T11:05:07.765Z,3.60
2022-11-09T11:07:35.571Z,5.10
2022-11-09T11:10:17.733Z,4.80
2022-11-09T11:12:59.791Z,3.00
2022-11-09T11:15:35.605Z,4.15
2022-11-09T11:18:05.440Z,4.32
2022-11-09T11:20:35.972Z,4.30
2022-11-09T11:23:24.615Z,3.08
2022-11-09T11:25:55.368Z,3.10
2022-11-09T11:28:30.407Z,3.92
2022-11-09T11:30:57.443Z,3.40
2022-11-09T11:33:24.537Z,3.70
2022-11-09T11:36:05.253Z,4.10
2022-11-09T11:39:05.292Z,4.45
2022-11-09T11:42:03.624Z,4.07
2022-11-09T11:44:59.402Z,5.90
2022-11-09T11:47:44.999Z,4.03
2022-11-09T11:50:21.905Z,2.83
2022-11-09T11:53:09.446Z,2.90
2022-11-09T11:56:07.037Z,3.80
2022-11-09T11:59:06.058Z,3.05
2022-11-09T12:02:14.067Z,3.45
2022-11-09T12:05:02.200Z,4.55
2022-11-09T12:07:54.673Z,3.10
2022-11-09T12:10:28.605Z,4.20
2022-11-09T12:13:04.425Z,3.45
2022-11-09T12:15:31.152Z,2.85
2022-11-09T12:18:03.743Z,2.90
2022-11-09T12:21:14.868Z,3.55
2022-11-09T12:24:13.999Z,2.83
2022-11-09T12:26:55.768Z,3.05
2022-11-09T12:30:16.204Z,4.95
2022-11-09T12:33:01.375Z,3.50
2022-11-09T12:35:37.905Z,3.42
2022-11-09T12:38:36.614Z,3.08
2022-11-09T12:41:19.236Z,6.07
2022-11-09T12:44:06.600Z,5.43
2022-11-09T12:46:39.351Z,5.00
2022-11-09T12:49:06.721Z,4.05
2022-11-09T12:51:34.537Z,4.63
2022-11-09T12:54:10.069Z,4.95
2022-11-09T12:56:46.154Z,3.97
2022-11-09T12:59:28.225Z,4.65
2022-11-09T13:01:58.224Z,3.17
2022-11-09T13:04:26.527Z,3.90
2022-11-09T13:07:17.881Z,4.55
2022-11-09T13:09:45.408Z,3.03
2022-11-09T13:12:33.132Z,4.32
2022-11-09T13:15:21.065Z,3.70
2022-11-09T13:18:01.951Z,8.40
2022-11-09T13:20:53.831Z,3.30
2022-11-09T13:23:47.720Z,3.17
2022-11-09T13:26:34.276Z,4.07
2022-11-09T13:29:19.128Z,4.32
2022-11-09T13:32:09.063Z,5.03
2022-11-09T13:34:45.977Z,6.35
2022-11-09T13:37:46.903Z,5.03
2022-11-09T13:40:44.332Z,5.53
2022-11-09T13:43:11.028Z,6.40
2022-11-09T13:46:04.124Z,4.20
2022-11-09T13:48:36.395Z,4.43
2022-11-09T13:51:26.923Z,3.67
2022-11-09T13:53:59.471Z,3.42
2022-11-09T13:56:29.137Z,6.45
2022-11-09T13:59:21.695Z,4.30
2022-11-09T14:01:57.799Z,8.32
2022-11-09T14:04:39.135Z,5.45
2022-11-09T14:07:17.923Z,4.00
2022-11-09T14:10:22.223Z,3.83
2022-11-09T14:13:15.098Z,4.15
2022-11-09T14:16:07.939Z,6.03
2022-11-09T14:18:34.675Z,4.13
2022-11-09T14:21:35.225Z,5.70
2022-11-09T14:24:30.812Z,5.55
2022-11-09T14:27:03.631Z,4.15
2022-11-09T14:29:34.080Z,5.93
2022-11-09T14:32:02.934Z,4.97
2022-11-09T14:34:30.474Z,5.18
2022-11-09T14:36:58.930Z,3.90
2022-11-09T14:39:34.004Z,7.03
2022-11-09T14:42:01.311Z,11.00
2022-11-09T14:44:32.369Z,14.02
2022-11-09T14:47:00.197Z,14.77
2022-11-09T14:49:27.951Z,16.90
2022-11-09T14:51:54.928Z,16.02
2022-11-09T14:54:27.110Z,16.67
2022-11-09T14:56:55.197Z,22.42
2022-11-09T14:59:31.475Z,19.85
2022-11-09T15:02:07.795Z,14.27
2022-11-09T15:04:53.250Z,12.15
2022-11-09T15:07:23.235Z,10.45
2022-11-09T15:09:54.684Z,9.90
2022-11-09T15:12:21.929Z,8.13
2022-11-09T15:14:52.517Z,11.82
2022-11-09T15:17:26.795Z,6.57
2022-11-09T15:19:55.371Z,5.22
2022-11-09T15:22:37.359Z,7.07
2022-11-09T15:25:51.797Z,4.93
2022-11-09T15:28:27.761Z,5.20
2022-11-09T15:30:54.497Z,7.43
2022-11-09T15:33:25.675Z,7.30
2022-11-09T15:36:17.127Z,10.27
2022-11-09T15:38:54.598Z,6.70
2022-11-09T15:41:23.875Z,7.55
2022-11-09T15:43:50.819Z,7.00
2022-11-09T15:46:45.484Z,5.97
2022-11-09T15:49:24.456Z,7.32
2022-11-09T15:51:51.891Z,5.18
2022-11-09T15:54:19.036Z,5.35
2022-11-09T15:56:46.865Z,4.03
2022-11-09T15:59:25.576Z,4.82
2022-11-09T16:01:52.405Z,5.85
2022-11-09T16:04:19.207Z,6.57
2022-11-09T16:06:46.943Z,8.90
2022-11-09T16:09:14.677Z,6.47
2022-11-09T16:11:41.835Z,7.32
2022-11-09T16:14:08.726Z,8.07
2022-11-09T16:16:35.519Z,10.52
2022-11-09T16:19:02.256Z,7.30
2022-11-09T16:21:29.053Z,7.00
2022-11-09T16:23:58.695Z,5.72
2022-11-09T16:26:26.190Z,6.88
2022-11-09T16:28:54.677Z,11.02
2022-11-09T16:31:41.177Z,7.65
2022-11-09T16:34:08.855Z,12.88
2022-11-09T16:36:38.851Z,10.30
2022-11-09T16:39:12.733Z,13.65
2022-11-09T16:41:42.036Z,12.77
2022-11-09T16:44:09.158Z,15.60
2022-11-09T16:46:36.054Z,20.17
2022-11-09T16:49:03.491Z,16.65
2022-11-09T16:51:30.965Z,18.52
2022-11-09T16:53:57.893Z,17.65
2022-11-09T16:56:25.425Z,16.55
2022-11-09T16:58:52.448Z,15.95
2022-11-09T17:01:23.421Z,11.88
2022-11-09T17:03:50.775Z,11.75
2022-11-09T17:06:17.789Z,10.10
2022-11-09T17:08:44.967Z,10.68
2022-11-09T17:11:14.820Z,10.05
2022-11-09T17:13:41.859Z,9.32
2022-11-09T17:16:12.348Z,9.05
2022-11-09T17:18:39.798Z,9.48
2022-11-09T17:21:11.844Z,8.18
2022-11-09T17:23:39.194Z,8.00
2022-11-09T17:26:07.630Z,8.52
2022-11-09T17:28:40.039Z,12.52
2022-11-09T17:31:12.135Z,18.60
2022-11-09T17:33:39.346Z,16.60
2022-11-09T17:36:08.875Z,15.32
2022-11-09T17:38:35.770Z,15.27
2022-11-09T17:41:08.555Z,10.65
2022-11-09T17:43:38.699Z,7.00
2022-11-09T17:46:06.733Z,9.75
2022-11-09T17:48:35.158Z,6.18
2022-11-09T17:51:02.755Z,4.10
2022-11-09T17:53:29.928Z,4.93
2022-11-09T17:55:56.801Z,5.07
2022-11-09T17:58:24.680Z,6.63
2022-11-09T18:00:52.347Z,5.35
2022-11-09T18:03:20.743Z,3.88
2022-11-09T18:05:48.022Z,5.75
2022-11-09T18:08:15.598Z,5.25
2022-11-09T18:10:45.480Z,6.32
2022-11-09T18:13:12.715Z,8.40
2022-11-09T18:15:40.352Z,8.23
2022-11-09T18:18:07.552Z,8.38
2022-11-09T18:20:37.075Z,10.40
2022-11-09T18:23:03.939Z,10.63
2022-11-09T18:25:31.384Z,9.18
2022-11-09T18:27:58.241Z,7.60
2022-11-09T18:30:25.089Z,6.57
2022-11-09T18:32:51.941Z,7.00
2022-11-09T18:35:19.115Z,6.20
2022-11-09T18:37:48.392Z,7.43
2022-11-09T18:40:16.137Z,6.82
2022-11-09T18:42:43.257Z,7.55
2022-11-09T18:45:10.942Z,6.15
2022-11-09T18:47:37.847Z,7.45
2022-11-09T18:50:05.666Z,8.75
2022-11-09T18:52:34.083Z,5.25
2022-11-09T18:55:01.036Z,6.30
2022-11-09T18:57:27.913Z,7.45
2022-11-09T18:59:54.774Z,7.47
2022-11-09T19:02:21.725Z,6.55
2022-11-09T19:04:49.231Z,7.43
2022-11-09T19:07:16.327Z,5.95
2022-11-09T19:09:43.295Z,5.72
2022-11-09T19:12:11.075Z,6.07
2022-11-09T19:14:41.081Z,5.57
2022-11-09T19:17:13.858Z,7.90
2022-11-09T19:19:42.305Z,5.78
2022-11-09T19:22:18.220Z,7.13
2022-11-09T19:24:46.202Z,7.30
2022-11-09T19:27:13.171Z,6.93
2022-11-09T19:29:40.183Z,9.27
2022-11-09T19:32:07.168Z,9.55
2022-11-09T19:34:34.004Z,6.05
2022-11-09T19:37:01.274Z,5.40
2022-11-09T19:39:33.426Z,5.80
2022-11-09T19:42:01.207Z,5.03
2022-11-09T19:44:28.057Z,7.75
2022-11-09T19:46:54.962Z,8.48
2022-11-09T19:49:21.896Z,7.15
2022-11-09T19:51:48.735Z,5.28
2022-11-09T19:54:16.227Z,7.57
2022-11-09T19:56:43.140Z,7.35
2022-11-09T19:59:14.363Z,5.72
2022-11-09T20:01:41.907Z,5.82
2022-11-09T20:04:10.685Z,7.35
2022-11-09T20:06:40.829Z,6.32
2022-11-09T20:09:07.871Z,6.50
2022-11-09T20:11:53.250Z,6.85
2022-11-09T20:14:21.174Z,8.35
2022-11-09T20:16:49.159Z,8.10
2022-11-09T20:19:16.419Z,9.63
2022-11-09T20:21:44.579Z,7.07
2022-11-09T20:24:12.408Z,8.20
2022-11-09T20:26:40.664Z,10.65
2022-11-09T20:29:07.572Z,9.20
2022-11-09T20:31:34.445Z,10.13
2022-11-09T20:34:02.533Z,11.82
2022-11-09T20:36:29.465Z,9.05
2022-11-09T20:38:56.453Z,10.68
2022-11-09T20:41:25.579Z,9.23
2022-11-09T20:43:52.847Z,8.73
2022-11-09T20:46:23.021Z,9.73
2022-11-09T20:48:55.378Z,10.60
2022-11-09T20:51:23.941Z,7.82
2022-11-09T20:53:51.035Z,9.40
2022-11-09T20:56:19.300Z,8.23
2022-11-09T20:58:46.559Z,8.82
2022-11-09T21:01:18.959Z,8.77
2022-11-09T21:03:46.941Z,10.48
2022-11-09T21:06:14.843Z,9.23
2022-11-09T21:08:49.984Z,8.60
2022-11-09T21:11:17.640Z,8.80
2022-11-09T21:13:52.577Z,9.80
2022-11-09T21:16:21.719Z,9.13
2022-11-09T21:18:49.168Z,11.55
2022-11-09T21:21:19.660Z,8.20
2022-11-09T21:24:05.351Z,8.23
2022-11-09T21:26:50.942Z,9.13
2022-11-09T21:29:42.627Z,10.13
2022-11-09T21:32:11.643Z,8.38
2022-11-09T21:34:38.698Z,6.32
2022-11-09T21:37:05.989Z,8.48
2022-11-09T21:39:33.224Z,8.07
2022-11-09T21:42:00.934Z,9.10
2022-11-09T21:44:29.362Z,8.68
2022-11-09T21:46:56.240Z,8.18
2022-11-09T21:49:24.238Z,9.23
2022-11-09T21:51:51.354Z,8.80
2022-11-09T21:54:18.623Z,11.52
2022-11-09T21:56:47.068Z,7.32
2022-11-09T21:59:14.318Z,9.40
2022-11-09T22:01:41.265Z,9.15
2022-11-09T22:04:08.975Z,8.30
2022-11-09T22:06:39.573Z,9.65
2022-11-09T22:09:07.876Z,11.13
2022-11-09T22:11:53.209Z,8.10
2022-11-09T22:14:39.338Z,8.88
2022-11-09T22:17:08.685Z,8.30
2022-11-09T22:19:55.545Z,7.47
2022-11-09T22:22:22.692Z,7.25
2022-11-09T22:24:49.622Z,7.40
2022-11-09T22:27:17.425Z,8.82
2022-11-09T22:29:44.340Z,10.60
2022-11-09T22:32:11.184Z,7.95
2022-11-09T22:34:38.060Z,8.65
2022-11-09T22:37:04.903Z,8.23
2022-11-09T22:39:31.949Z,9.23
2022-11-09T22:41:58.888Z,7.88
2022-11-09T22:44:25.733Z,8.57
2022-11-09T22:46:52.584Z,8.68
2022-11-09T22:49:19.447Z,8.85
2022-11-09T22:51:46.396Z,7.70
2022-11-09T22:54:13.683Z,8.05
2022-11-09T22:56:40.621Z,8.52
2022-11-09T22:59:07.960Z,7.07
2022-11-09T23:01:34.979Z,8.02
2022-11-09T23:04:02.018Z,7.75
2022-11-09T23:06:29.182Z,7.90
2022-11-09T23:08:56.228Z,8.20
2022-11-09T23:11:25.123Z,8.77
2022-11-09T23:13:53.408Z,9.55
2022-11-09T23:16:21.368Z,8.38
2022-11-09T23:18:54.397Z,9.40
2022-11-09T23:21:36.601Z,8.00
2022-11-09T23:24:06.103Z,9.40
2022-11-09T23:26:34.018Z,10.90
2022-11-09T23:29:00.904Z,9.43
2022-11-09T23:31:28.901Z,8.07
2022-11-09T23:33:57.790Z,8.80
2022-11-09T23:36:26.559Z,7.10
2022-11-09T23:38:53.866Z,9.40
2022-11-09T23:41:20.871Z,11.23
2022-11-09T23:43:49.868Z,7.75
2022-11-09T23:46:18.019Z,8.63
2022-11-09T23:48:45.243Z,8.52
2022-11-09T23:51:12.543Z,7.63
2022-11-09T23:53:39.929Z,7.53
2022-11-09T23:56:11.817Z,9.77
2022-11-09T23:58:38.932Z,9.15
